Aérodrome :
LOGIN :

S'inscrire | Disclaimer

   EN    FR    IT 

 










Légende :    VFR   VFR Marginal   IFR   IFR Intensif   IFR Très Intensif
Visi : 
Plafond : 
>= 8 km
>= 3000ft
5 à 8 km
1000 à 3000 ft
1500m à 5 km
500 à 1000 ft
800 à 1500m
200 à 500 ft
< 800m
< 200 ft
Symboles :   Orages  Brouillard  Fortes neiges  Fortes précipitations  Vent > 20 kt
SIGMETs :   Divers  Orages  Givrage  Turbulence  Onde Orograph.  Cendres Volcan.






- Altitude de l'aérodrome : 56 ft
- Code IATA : BZR


LFMU - Beziers / Vias

DERNIER METAR :
  • 110630Z AUTO 28009KT CAVOK 24/16 Q1018 NOSIG

METARs EXPIRÉS :
  • 110600Z AUTO 28010KT CAVOK 23/17 Q1018 NOSIG
  • 110530Z AUTO 28011KT CAVOK 23/16 Q1018 NOSIG
  • 110500Z AUTO 28011KT CAVOK 23/17 Q1017 NOSIG
  • 110430Z AUTO 28010KT CAVOK 22/16 Q1017 NOSIG
  • 110400Z AUTO 28011KT CAVOK 23/16 Q1017 NOSIG

TAF TAF LFMU
Valide du 11 à 03h jusqu'au 12 à 03h UTC


110200Z 1103/1203 28013KT CAVOK
BECMG 1107/1109 32012KT
BECMG 1114/1115 14010KT
BECMG 1123/1201 02005KT
ATIS : +33 4 67 90 88 88



MET'MAP, la Météo Aéronautique d'un coup d'oeil ! - Copyright ORBIFLY Décembre 2007 - Disclaimer

ORBIFLY MET'MAP TEAM :

Programmation & Développement : Alexandra Zaïnal
Sur une idée originale de : Baudouin d'Aumeries
Assistance à la programmation : Marc-Olivier Méhu
Soutien technique & logistique : Manuel Goepfert

Contact : metmap@orbifly.com




SOURCES & CREDITS :

   NOAA